Time;durP1;ratioP1;P1;durP2;ratioP2;P2;SDS_P1;SDS_P2;PMS_P1;PMS_P2;Temp;Humidity;BMP_temperature;BMP_pressure;BME280_temperature;BME280_humidity;BME280_pressure;Samples;Min_cycle;Max_cycle;Signal;HPM_P1;HPM_P2
2021/12/08 00:02:11;;;;;;;9.63;2.78;;;2.80;99.90;;;;;;5018055;28;20033;-76
2021/12/08 00:04:37;;;;;;;3.22;2.28;;;2.80;99.90;;;;;;5038318;28;20645;-76
2021/12/08 00:07:05;;;;;;;3.95;2.22;;;2.80;99.90;;;;;;5066748;28;20040;-76
2021/12/08 00:10:02;;;;;;;6.43;2.40;;;2.90;99.90;;;;;;5042391;28;20037;-76
2021/12/08 00:15:05;;;;;;;11.43;3.47;;;2.90;99.90;;;;;;5042970;28;20052;-76
2021/12/08 00:17:30;;;;;;;1.73;1.63;;;2.90;99.90;;;;;;5033880;28;20068;-76
2021/12/08 00:20:01;;;;;;;1.92;1.60;;;2.90;99.90;;;;;;5056936;28;20108;-76
2021/12/08 00:22:27;;;;;;;6.13;2.92;;;2.90;99.90;;;;;;5067506;28;20106;-76
2021/12/08 00:24:53;;;;;;;1.63;1.50;;;3.00;99.90;;;;;;5069986;28;20088;-77
2021/12/08 00:27:18;;;;;;;4.07;2.33;;;3.00;99.90;;;;;;5022501;28;20065;-76
2021/12/08 00:29:44;;;;;;;4.90;2.35;;;3.00;99.90;;;;;;5038766;28;20045;-76
2021/12/08 00:32:10;;;;;;;7.10;2.47;;;3.00;99.90;;;;;;5035512;28;20465;-77
2021/12/08 00:34:38;;;;;;;8.50;3.20;;;3.00;99.90;;;;;;5026776;28;20051;-77
2021/12/08 00:37:05;;;;;;;4.22;2.58;;;3.10;99.90;;;;;;5039581;28;20063;-77
2021/12/08 00:39:31;;;;;;;7.28;2.45;;;3.10;99.90;;;;;;5034880;28;20052;-76
2021/12/08 00:41:56;;;;;;;6.32;2.90;;;3.10;99.90;;;;;;5031070;28;20037;-77
2021/12/08 00:44:22;;;;;;;3.83;2.42;;;3.20;99.90;;;;;;5018468;28;20485;-77
2021/12/08 00:46:48;;;;;;;7.72;4.05;;;3.20;99.90;;;;;;5026943;28;20033;-77
2021/12/08 00:49:16;;;;;;;6.00;2.75;;;3.20;99.90;;;;;;5038164;28;20047;-77
2021/12/08 00:51:42;;;;;;;3.17;1.80;;;3.20;99.90;;;;;;5035404;28;20154;-77
2021/12/08 00:54:07;;;;;;;4.70;2.03;;;3.30;99.90;;;;;;5024625;28;20073;-77
2021/12/08 00:56:33;;;;;;;6.68;3.63;;;3.30;99.90;;;;;;5055118;28;20496;-77
2021/12/08 00:58:59;;;;;;;6.57;2.85;;;3.20;99.90;;;;;;5037101;28;20139;-77
2021/12/08 01:01:26;;;;;;;3.05;1.63;;;3.30;99.90;;;;;;5018381;28;20050;-77
2021/12/08 01:03:52;;;;;;;4.00;2.70;;;3.30;99.90;;;;;;5068168;28;20787;-77
2021/12/08 01:06:19;;;;;;;11.27;4.13;;;3.30;99.90;;;;;;5028221;28;20044;-77
2021/12/08 01:08:45;;;;;;;4.07;2.17;;;3.30;99.90;;;;;;5019778;28;20040;-77
2021/12/08 01:11:15;;;;;;;6.65;2.50;;;3.30;99.90;;;;;;5036560;28;20200;-77
2021/12/08 01:13:42;;;;;;;4.90;2.50;;;3.30;99.90;;;;;;5037254;28;20067;-77
2021/12/08 01:16:08;;;;;;;4.95;2.80;;;3.30;99.90;;;;;;5037910;28;20452;-77
2021/12/08 01:18:34;;;;;;;6.18;2.85;;;3.40;99.90;;;;;;5020228;28;20044;-77
2021/12/08 01:21:04;;;;;;;4.88;3.22;;;3.40;99.90;;;;;;5032211;28;20045;-77
2021/12/08 01:23:30;;;;;;;4.88;2.22;;;3.40;99.90;;;;;;5067704;28;20039;-77
2021/12/08 01:25:57;;;;;;;4.32;2.83;;;3.40;99.90;;;;;;5018551;28;20041;-77
2021/12/08 01:28:23;;;;;;;10.77;3.53;;;3.40;99.90;;;;;;5038640;28;20040;-77
2021/12/08 01:30:52;;;;;;;4.85;2.72;;;3.40;99.90;;;;;;5037273;28;20443;-77
2021/12/08 01:33:19;;;;;;;5.63;2.70;;;3.40;99.90;;;;;;5052734;28;20041;-77
2021/12/08 01:35:46;;;;;;;7.47;3.05;;;3.40;99.90;;;;;;5038389;28;20127;-77
2021/12/08 01:38:12;;;;;;;3.40;2.20;;;3.40;99.90;;;;;;5035999;28;20059;-77
2021/12/08 01:40:38;;;;;;;2.78;2.58;;;3.40;99.90;;;;;;5071867;28;20033;-76
2021/12/08 01:43:12;;;;;;;3.88;2.72;;;3.50;99.90;;;;;;5033333;28;20052;-77
2021/12/08 01:48:21;;;;;;;9.38;2.60;;;3.50;99.90;;;;;;5033323;28;20069;-77
2021/12/08 01:50:51;;;;;;;9.55;3.85;;;3.50;99.90;;;;;;5035324;28;20535;-77
2021/12/08 01:53:18;;;;;;;6.22;3.67;;;3.50;99.90;;;;;;5062404;28;20037;-77
2021/12/08 01:55:44;;;;;;;4.90;2.78;;;3.50;99.90;;;;;;5054147;28;20088;-77
2021/12/08 01:58:13;;;;;;;8.15;3.25;;;3.60;99.90;;;;;;5033074;28;20150;-77
2021/12/08 02:00:47;;;;;;;5.88;2.92;;;3.60;99.90;;;;;;5067248;28;20065;-77
2021/12/08 02:03:15;;;;;;;3.83;2.20;;;3.60;99.90;;;;;;5012129;28;20030;-77
2021/12/08 02:05:42;;;;;;;12.32;3.70;;;3.60;99.90;;;;;;5020415;28;20497;-77
2021/12/08 02:08:08;;;;;;;5.15;2.70;;;3.60;99.90;;;;;;5020878;28;20033;-77
2021/12/08 02:10:37;;;;;;;4.18;3.17;;;3.60;99.90;;;;;;5022734;28;20041;-77
2021/12/08 02:13:03;;;;;;;18.98;3.55;;;3.60;99.90;;;;;;5019717;28;20567;-77
2021/12/08 02:15:29;;;;;;;4.38;2.60;;;3.60;99.90;;;;;;5033232;28;20404;-77
2021/12/08 02:17:57;;;;;;;11.82;3.25;;;3.70;99.90;;;;;;5040124;28;20552;-77
2021/12/08 02:20:25;;;;;;;3.67;2.72;;;3.70;99.90;;;;;;5025787;28;20135;-77
2021/12/08 02:22:51;;;;;;;3.10;2.10;;;3.70;99.90;;;;;;5037764;28;20068;-77
2021/12/08 02:25:19;;;;;;;2.30;2.00;;;3.70;99.90;;;;;;5015116;28;20123;-77
2021/12/08 02:27:46;;;;;;;8.23;3.63;;;3.70;99.90;;;;;;5035068;28;20055;-77
2021/12/08 02:49:06;;;;;;;5.53;2.28;;;3.80;99.90;;;;;;5071652;28;20044;-77
2021/12/08 02:51:33;;;;;;;3.80;2.70;;;3.80;99.90;;;;;;5056430;28;20041;-77
2021/12/08 02:53:59;;;;;;;4.25;2.53;;;3.80;99.90;;;;;;5027530;28;20457;-77
2021/12/08 02:56:26;;;;;;;4.60;2.67;;;3.80;99.90;;;;;;5069752;28;20051;-77
2021/12/08 02:58:52;;;;;;;5.57;2.90;;;3.80;99.90;;;;;;5045074;28;20134;-76
2021/12/08 03:01:18;;;;;;;3.92;3.10;;;3.80;99.90;;;;;;5025896;28;20037;-77
2021/12/08 03:03:44;;;;;;;4.43;3.47;;;3.80;99.90;;;;;;5041937;28;20041;-77
2021/12/08 03:06:12;;;;;;;3.53;2.33;;;3.90;99.90;;;;;;5028647;28;20496;-76
2021/12/08 03:08:38;;;;;;;5.13;3.42;;;3.90;99.90;;;;;;5019059;28;20049;-77
2021/12/08 03:11:04;;;;;;;2.88;2.40;;;3.90;99.90;;;;;;5072034;28;20114;-76
2021/12/08 03:13:41;;;;;;;3.88;2.88;;;3.90;99.90;;;;;;5036337;28;20041;-77
2021/12/08 03:16:08;;;;;;;3.67;2.58;;;3.90;99.90;;;;;;5037598;28;20125;-76
2021/12/08 03:18:36;;;;;;;6.85;3.95;;;3.90;99.90;;;;;;5056280;28;20120;-77
2021/12/08 03:21:05;;;;;;;5.28;3.78;;;3.90;99.90;;;;;;5038966;28;20063;-77
2021/12/08 03:23:50;;;;;;;5.97;3.90;;;3.90;99.90;;;;;;5066679;28;20127;-77
2021/12/08 03:26:19;;;;;;;4.03;3.05;;;4.00;99.90;;;;;;5024779;28;20044;-77
2021/12/08 03:28:57;;;;;;;5.55;3.30;;;3.90;99.90;;;;;;5019166;28;20037;-77
2021/12/08 03:31:29;;;;;;;6.53;3.22;;;4.00;99.90;;;;;;5036189;28;20144;-77
2021/12/08 03:33:55;;;;;;;8.05;5.25;;;4.00;99.90;;;;;;5029625;28;20041;-76
2021/12/08 03:36:21;;;;;;;3.30;2.92;;;4.00;99.90;;;;;;5075474;28;20049;-77
2021/12/08 03:38:47;;;;;;;5.03;3.30;;;4.00;99.90;;;;;;5021149;28;20049;-76
2021/12/08 03:41:13;;;;;;;4.93;3.58;;;4.10;99.90;;;;;;5041368;28;20037;-76
2021/12/08 03:43:39;;;;;;;6.35;4.65;;;4.00;99.90;;;;;;5022623;28;20460;-77
2021/12/08 03:46:05;;;;;;;7.43;4.93;;;4.10;99.90;;;;;;5038974;28;20199;-77
2021/12/08 03:48:44;;;;;;;5.43;3.58;;;4.10;99.90;;;;;;5068906;28;20045;-77
2021/12/08 03:51:11;;;;;;;9.32;5.65;;;4.10;99.90;;;;;;5032989;28;20454;-77
2021/12/08 03:53:37;;;;;;;4.25;3.83;;;4.10;99.90;;;;;;5024260;28;20072;-77
2021/12/08 03:56:03;;;;;;;6.75;4.30;;;4.20;99.90;;;;;;5016521;28;20064;-77
2021/12/08 03:58:28;;;;;;;10.15;5.22;;;4.20;99.90;;;;;;5041982;28;20562;-77
2021/12/08 04:00:56;;;;;;;19.17;5.25;;;4.20;99.90;;;;;;5025301;28;20033;-77
2021/12/08 04:03:25;;;;;;;4.05;3.55;;;4.20;99.90;;;;;;5042130;28;20048;-77
2021/12/08 04:08:32;;;;;;;8.05;4.40;;;4.20;99.90;;;;;;5037803;28;20106;-77
2021/12/08 04:11:03;;;;;;;16.02;4.90;;;4.30;99.90;;;;;;5029465;28;20115;-76
2021/12/08 04:13:57;;;;;;;4.03;3.25;;;4.30;99.90;;;;;;5040951;28;20476;-76
2021/12/08 04:16:32;;;;;;;8.15;2.80;;;4.30;99.90;;;;;;5020663;28;20049;-77
2021/12/08 04:18:59;;;;;;;5.80;3.60;;;4.30;99.90;;;;;;5055548;28;20037;-76
2021/12/08 04:21:25;;;;;;;8.55;3.50;;;4.30;99.90;;;;;;5027292;28;20639;-77
2021/12/08 04:23:52;;;;;;;6.05;4.85;;;4.30;99.90;;;;;;5036476;28;20045;-76
2021/12/08 04:26:28;;;;;;;6.35;4.47;;;4.30;99.90;;;;;;5040188;28;20064;-76
2021/12/08 04:28:55;;;;;;;3.35;2.92;;;4.30;99.90;;;;;;5039693;28;20037;-77
2021/12/08 04:31:26;;;;;;;8.88;4.97;;;4.30;99.90;;;;;;5020011;28;20460;-77
2021/12/08 04:33:55;;;;;;;8.90;5.28;;;4.40;99.90;;;;;;5036429;28;20064;-76
2021/12/08 04:36:24;;;;;;;7.20;4.82;;;4.40;99.90;;;;;;5022932;28;20102;-77
2021/12/08 04:38:55;;;;;;;6.45;4.60;;;4.40;99.90;;;;;;5022268;28;20039;-76
2021/12/08 04:41:31;;;;;;;7.35;5.30;;;4.50;99.90;;;;;;5015732;28;20123;-76
2021/12/08 04:44:31;;;;;;;7.55;3.75;;;4.50;99.90;;;;;;5020121;28;20719;-77
2021/12/08 04:52:28;;;;;;;5.55;4.40;;;4.50;99.90;;;;;;5034897;28;20052;-77
2021/12/08 05:08:53;;;;;;;6.60;4.20;;;4.70;99.90;;;;;;5039725;28;20144;-76
2021/12/08 05:11:39;;;;;;;6.95;5.28;;;4.70;99.90;;;;;;5036464;28;20041;-76
2021/12/08 05:14:20;;;;;;;11.43;4.28;;;4.80;99.90;;;;;;5033763;28;20087;-76
2021/12/08 05:16:50;;;;;;;9.50;3.35;;;4.80;99.90;;;;;;5069256;28;20200;-76
2021/12/08 05:19:22;;;;;;;10.48;5.78;;;4.90;99.90;;;;;;5073113;28;20665;-76
2021/12/08 05:21:56;;;;;;;13.40;7.30;;;4.90;99.90;;;;;;5030174;28;20395;-77
2021/12/08 05:24:50;;;;;;;5.85;2.45;;;5.00;99.90;;;;;;5037990;28;20600;-76
2021/12/08 05:27:30;;;;;;;6.95;4.35;;;5.00;99.90;;;;;;5014856;28;20519;-76
2021/12/08 05:30:13;;;;;;;5.55;4.00;;;5.00;99.90;;;;;;5041878;28;20045;-77
2021/12/08 05:32:39;;;;;;;7.40;5.63;;;5.10;99.90;;;;;;5028647;28;20044;-77
2021/12/08 05:35:09;;;;;;;9.15;4.90;;;5.10;99.90;;;;;;5030763;28;20099;-77
2021/12/08 05:37:36;;;;;;;5.95;3.45;;;5.10;99.90;;;;;;5038606;28;20044;-78
2021/12/08 05:40:04;;;;;;;2.97;2.20;;;5.20;99.90;;;;;;5033792;28;20131;-76
2021/12/08 05:42:35;;;;;;;5.07;3.45;;;5.20;99.90;;;;;;5036489;28;20496;-76
2021/12/08 05:45:04;;;;;;;10.60;4.90;;;5.20;99.90;;;;;;5071238;28;20402;-77
2021/12/08 05:47:30;;;;;;;10.02;4.25;;;5.30;99.90;;;;;;5033404;28;20037;-77
2021/12/08 05:49:57;;;;;;;3.70;2.88;;;5.30;99.90;;;;;;5030743;28;20091;-77
2021/12/08 05:52:23;;;;;;;4.82;3.90;;;5.30;99.90;;;;;;5033864;28;20041;-77
2021/12/08 05:54:51;;;;;;;7.00;3.70;;;5.30;99.90;;;;;;5038552;28;20095;-77
2021/12/08 05:57:21;;;;;;;8.95;3.75;;;5.30;99.90;;;;;;5062544;28;20084;-77
2021/12/08 05:59:49;;;;;;;5.55;3.35;;;5.40;99.90;;;;;;5027146;28;20128;-76
2021/12/08 06:02:24;;;;;;;3.83;2.85;;;5.40;99.90;;;;;;5042580;28;20095;-77
2021/12/08 06:04:50;;;;;;;3.00;1.45;;;5.40;99.90;;;;;;5028890;28;20037;-76
2021/12/08 06:07:21;;;;;;;1.65;1.55;;;5.40;99.90;;;;;;5038940;28;20039;-76
2021/12/08 06:09:52;;;;;;;7.78;3.17;;;5.40;99.90;;;;;;5058483;28;20450;-76
2021/12/08 06:12:18;;;;;;;3.60;2.53;;;5.40;99.90;;;;;;5039864;28;20083;-76
2021/12/08 06:14:44;;;;;;;2.95;2.15;;;5.40;99.90;;;;;;5022302;28;20523;-77
2021/12/08 06:17:18;;;;;;;2.38;2.10;;;5.40;99.90;;;;;;5041198;28;20037;-77
2021/12/08 06:19:46;;;;;;;7.00;3.58;;;5.40;99.90;;;;;;5054139;28;20124;-77
2021/12/08 06:22:13;;;;;;;2.95;2.60;;;5.40;99.90;;;;;;5057043;28;20451;-77
2021/12/08 06:24:40;;;;;;;5.95;4.00;;;5.40;99.90;;;;;;5055879;28;20041;-76
2021/12/08 06:27:07;;;;;;;4.72;2.85;;;5.40;99.90;;;;;;5025929;28;20033;-76
2021/12/08 06:29:33;;;;;;;3.20;2.38;;;5.40;99.90;;;;;;5053350;28;20037;-76
2021/12/08 06:32:02;;;;;;;5.93;2.65;;;5.40;99.90;;;;;;5052218;28;20041;-76
2021/12/08 06:34:30;;;;;;;2.50;2.15;;;5.30;99.90;;;;;;5042850;28;20161;-76
2021/12/08 06:37:19;;;;;;;8.15;3.67;;;5.20;99.90;;;;;;5057586;28;20122;-78
2021/12/08 06:39:57;;;;;;;1.42;1.33;;;5.20;99.90;;;;;;5069558;28;20055;-79
2021/12/08 06:42:34;;;;;;;7.13;2.38;;;5.20;99.90;;;;;;5059349;28;20095;-76
2021/12/08 06:45:00;;;;;;;2.45;2.03;;;5.10;99.90;;;;;;5039066;28;20036;-79
2021/12/08 06:47:30;;;;;;;6.03;2.63;;;5.00;99.90;;;;;;5039092;28;20041;-79
2021/12/08 06:49:59;;;;;;;5.30;2.63;;;5.00;99.90;;;;;;5057636;28;20037;-78
2021/12/08 06:52:29;;;;;;;3.17;2.00;;;5.00;99.90;;;;;;5033753;28;20552;-78
2021/12/08 06:55:11;;;;;;;5.88;3.33;;;4.90;99.90;;;;;;5023587;28;20039;-78
2021/12/08 06:57:48;;;;;;;6.70;3.60;;;4.90;99.90;;;;;;5035719;28;20072;-78
2021/12/08 07:00:36;;;;;;;3.92;3.03;;;4.90;99.90;;;;;;5025744;28;20047;-78
2021/12/08 07:03:52;;;;;;;3.00;2.47;;;4.90;99.90;;;;;;5025846;28;20075;-78
2021/12/08 07:06:06;;;;;;;7.70;3.97;;;4.90;99.90;;;;;;5035490;28;20041;-76
2021/12/08 07:08:52;;;;;;;5.07;3.13;;;4.90;99.90;;;;;;5034522;28;20045;-78
2021/12/08 07:11:21;;;;;;;4.78;3.22;;;4.90;99.90;;;;;;5059117;28;20044;-78
2021/12/08 07:13:50;;;;;;;3.50;3.20;;;4.90;99.90;;;;;;5029648;28;20595;-78
2021/12/08 07:16:22;;;;;;;2.97;2.05;;;4.80;99.90;;;;;;5022652;28;20379;-78
2021/12/08 07:18:54;;;;;;;5.57;2.92;;;4.80;99.90;;;;;;5032294;28;20041;-76
2021/12/08 07:21:23;;;;;;;2.80;2.60;;;4.80;99.90;;;;;;5058265;28;20040;-75
2021/12/08 07:23:57;;;;;;;4.30;2.15;;;4.70;99.90;;;;;;5031143;28;20509;-78
2021/12/08 07:26:26;;;;;;;4.35;3.13;;;4.70;99.90;;;;;;5054415;28;20098;-78
2021/12/08 07:28:55;;;;;;;3.97;2.58;;;4.70;99.90;;;;;;5049415;28;20111;-78
2021/12/08 07:31:29;;;;;;;7.28;3.30;;;4.70;99.90;;;;;;5059434;28;20093;-78
2021/12/08 07:34:02;;;;;;;2.63;1.83;;;4.70;99.90;;;;;;5025366;28;20053;-77
2021/12/08 07:36:30;;;;;;;3.50;2.53;;;4.70;99.90;;;;;;5019355;28;20049;-78
2021/12/08 07:38:59;;;;;;;3.90;2.38;;;4.70;99.90;;;;;;5019065;28;20033;-78
2021/12/08 07:41:41;;;;;;;4.72;2.72;;;4.60;99.90;;;;;;5041972;28;20733;-78
2021/12/08 07:44:11;;;;;;;11.45;2.72;;;4.70;99.90;;;;;;5038543;28;20043;-76
2021/12/08 07:46:41;;;;;;;6.82;2.13;;;4.70;99.90;;;;;;5027575;28;20065;-76
2021/12/08 07:49:14;;;;;;;6.97;2.50;;;4.70;99.90;;;;;;5036304;28;20044;-78
2021/12/08 07:51:47;;;;;;;3.38;1.65;;;4.70;99.90;;;;;;5031960;28;20498;-78
2021/12/08 07:54:14;;;;;;;4.95;2.53;;;4.60;99.90;;;;;;5055442;28;20200;-78
2021/12/08 07:56:43;;;;;;;7.18;2.30;;;4.60;99.90;;;;;;5068191;28;20048;-78
2021/12/08 07:59:12;;;;;;;4.82;2.25;;;4.60;99.90;;;;;;5059585;28;20505;-76
2021/12/08 08:01:46;;;;;;;1.98;1.40;;;4.60;99.90;;;;;;5038343;28;20041;-78
2021/12/08 08:04:16;;;;;;;3.50;2.30;;;4.60;99.90;;;;;;5034826;28;20047;-78
2021/12/08 08:06:45;;;;;;;5.88;2.40;;;4.60;99.90;;;;;;5032670;28;20473;-76
2021/12/08 08:09:23;;;;;;;8.70;1.92;;;4.60;99.90;;;;;;5033219;28;20065;-78
2021/12/08 08:11:57;;;;;;;2.30;1.40;;;4.70;99.90;;;;;;5024935;28;20567;-76
2021/12/08 08:14:36;;;;;;;1.95;1.60;;;4.60;99.90;;;;;;5019934;28;20151;-78
2021/12/08 08:17:02;;;;;;;3.55;2.17;;;4.70;99.90;;;;;;5034267;28;20420;-76
2021/12/08 08:19:31;;;;;;;8.35;2.13;;;4.70;99.90;;;;;;5049864;28;20471;-75
2021/12/08 08:22:04;;;;;;;2.20;1.88;;;4.70;99.90;;;;;;5040630;28;20052;-78
2021/12/08 08:24:30;;;;;;;14.43;1.90;;;4.80;99.90;;;;;;5025268;28;20071;-76
2021/12/08 08:27:00;;;;;;;2.45;1.52;;;4.80;99.90;;;;;;5032295;28;20069;-76
2021/12/08 08:29:26;;;;;;;3.25;2.00;;;4.90;99.90;;;;;;5057253;28;20045;-75
2021/12/08 08:32:00;;;;;;;2.65;1.20;;;4.90;99.90;;;;;;5024488;28;20053;-76
2021/12/08 08:34:39;;;;;;;0.70;0.43;;;4.80;99.90;;;;;;5027444;28;20045;-76
2021/12/08 08:37:08;;;;;;;6.15;2.75;;;4.90;99.90;;;;;;5015102;28;20041;-76
2021/12/08 08:39:37;;;;;;;1.52;1.40;;;4.80;99.90;;;;;;5038229;28;20088;-76
2021/12/08 08:42:08;;;;;;;4.32;1.50;;;4.90;99.90;;;;;;5038162;28;20497;-75
2021/12/08 08:44:46;;;;;;;6.38;2.72;;;4.90;99.90;;;;;;5032661;28;20043;-76
2021/12/08 08:47:20;;;;;;;1.27;1.17;;;4.90;99.90;;;;;;5066421;28;20041;-76
2021/12/08 08:49:46;;;;;;;1.50;1.30;;;4.90;99.90;;;;;;5069911;28;20040;-78
2021/12/08 08:52:25;;;;;;;10.85;1.33;;;4.90;99.90;;;;;;5020723;28;20055;-76
2021/12/08 08:54:53;;;;;;;3.47;2.03;;;5.00;99.90;;;;;;5022119;28;20145;-77
2021/12/08 08:57:40;;;;;;;3.13;1.75;;;5.10;99.90;;;;;;5032798;28;20080;-77
2021/12/08 09:00:10;;;;;;;11.48;2.42;;;5.30;99.90;;;;;;5059656;28;20420;-77
2021/12/08 09:02:39;;;;;;;5.53;2.28;;;5.30;99.90;;;;;;5036209;28;20527;-78
2021/12/08 09:05:17;;;;;;;7.72;2.47;;;5.30;99.90;;;;;;5042704;28;20362;-77
2021/12/08 09:07:45;;;;;;;8.88;2.83;;;5.30;99.90;;;;;;5042237;28;20493;-77
2021/12/08 09:10:52;;;;;;;14.15;2.05;;;5.20;99.90;;;;;;5036493;28;20403;-78
2021/12/08 09:13:25;;;;;;;7.18;1.50;;;5.20;99.90;;;;;;5010196;28;20151;-78
2021/12/08 09:16:01;;;;;;;1.33;1.23;;;5.10;99.90;;;;;;5052836;28;20648;-77
2021/12/08 09:18:46;;;;;;;1.65;1.33;;;5.10;99.90;;;;;;5035203;28;20076;-77
2021/12/08 09:21:37;;;;;;;1.33;1.17;;;5.10;99.90;;;;;;5016580;28;20037;-77
2021/12/08 09:24:15;;;;;;;12.63;1.95;;;5.10;99.90;;;;;;5033060;28;20036;-78
2021/12/08 09:26:48;;;;;;;5.35;0.85;;;5.10;99.90;;;;;;5028662;28;20552;-78
2021/12/08 09:29:15;;;;;;;;;;;5.20;99.90;;;;;;5030536;28;20037;-77
2021/12/08 09:31:56;;;;;;;4.53;2.08;;;5.20;99.90;;;;;;5066670;28;20336;-77
2021/12/08 09:34:28;;;;;;;4.57;1.10;;;5.20;99.90;;;;;;5056063;28;20047;-77
2021/12/08 09:37:03;;;;;;;5.38;2.05;;;5.20;99.90;;;;;;5024286;28;20072;-77
2021/12/08 09:39:34;;;;;;;4.00;1.33;;;5.30;99.90;;;;;;5035863;28;20407;-77
2021/12/08 09:42:08;;;;;;;3.75;1.10;;;5.30;99.90;;;;;;5034570;28;20051;-77
2021/12/08 09:44:41;;;;;;;3.35;2.15;;;5.40;99.90;;;;;;5050877;28;20753;-77
2021/12/08 09:47:07;;;;;;;1999.90;999.90;;;5.40;99.90;;;;;;5084203;28;20086;-77
2021/12/08 09:49:34;;;;;;;66.13;61.83;;;5.40;99.90;;;;;;5047131;28;20044;-77
2021/12/08 09:52:04;;;;;;;1999.90;999.90;;;5.50;99.90;;;;;;5039279;28;20091;-77
2021/12/08 09:54:31;;;;;;;1999.90;999.90;;;5.60;99.90;;;;;;5037399;28;20374;-76
2021/12/08 09:56:59;;;;;;;30.40;27.95;;;5.70;99.90;;;;;;5062836;28;20048;-75
2021/12/08 09:59:25;;;;;;;4.85;2.10;;;5.70;99.90;;;;;;5035988;28;20049;-76
2021/12/08 10:01:52;;;;;;;8.57;2.40;;;5.70;99.90;;;;;;5063548;28;20099;-76
2021/12/08 10:04:19;;;;;;;4.80;2.40;;;5.70;99.90;;;;;;5051292;28;20116;-78
2021/12/08 10:06:49;;;;;;;9.77;2.78;;;5.70;99.90;;;;;;5049439;28;20051;-79
2021/12/08 10:09:17;;;;;;;5.78;3.10;;;5.80;99.90;;;;;;5050195;28;20408;-78
2021/12/08 10:11:43;;;;;;;4.75;2.70;;;5.80;99.90;;;;;;5048023;28;20063;-78
2021/12/08 10:14:09;;;;;;;2.13;2.03;;;5.80;99.90;;;;;;5033085;28;20045;-79
2021/12/08 10:16:35;;;;;;;7.75;3.05;;;5.80;99.90;;;;;;5037397;28;20041;-78
2021/12/08 10:19:02;;;;;;;3.95;2.10;;;5.80;99.90;;;;;;5039480;28;20469;-76
2021/12/08 10:21:39;;;;;;;5.55;2.75;;;5.80;99.90;;;;;;5027886;28;20049;-79
2021/12/08 10:24:19;;;;;;;6.55;2.85;;;5.90;99.90;;;;;;5048604;28;20517;-77
2021/12/08 10:26:46;;;;;;;6.85;2.58;;;5.90;99.90;;;;;;5058086;28;20055;-76
2021/12/08 10:29:12;;;;;;;6.55;3.17;;;6.00;99.90;;;;;;5030658;28;20045;-76
2021/12/08 10:31:47;;;;;;;3.85;2.72;;;6.00;99.90;;;;;;5054998;28;20385;-76
2021/12/08 10:36:54;;;;;;;6.20;4.20;;;6.10;99.90;;;;;;5055588;28;20076;-77
2021/12/08 10:39:35;;;;;;;7.70;3.80;;;6.30;99.90;;;;;;5046565;28;20056;-78
2021/12/08 10:42:23;;;;;;;5.63;3.22;;;6.50;99.90;;;;;;5026694;28;20041;-78
2021/12/08 10:45:12;;;;;;;6.63;3.58;;;6.50;99.90;;;;;;5021906;28;20029;-76
2021/12/08 10:47:55;;;;;;;10.25;3.15;;;6.60;99.90;;;;;;5031217;28;20040;-78
2021/12/08 10:56:09;;;;;;;3.38;2.45;;;6.80;99.90;;;;;;5042834;28;20055;-77
2021/12/08 10:58:53;;;;;;;4.70;2.67;;;6.90;99.90;;;;;;5025515;28;20048;-78
2021/12/08 11:01:24;;;;;;;5.03;3.55;;;6.90;99.90;;;;;;5018719;28;20071;-78
2021/12/08 11:03:58;;;;;;;2.90;2.40;;;7.00;99.90;;;;;;5040419;28;20044;-78
2021/12/08 11:06:30;;;;;;;9.93;3.05;;;6.90;99.90;;;;;;5052442;28;20045;-78
2021/12/08 11:08:56;;;;;;;2.60;2.30;;;6.80;99.90;;;;;;5022999;28;20477;-77
2021/12/08 11:11:31;;;;;;;5.15;2.85;;;6.70;99.90;;;;;;5033131;28;20045;-79
2021/12/08 11:14:02;;;;;;;11.30;2.67;;;6.70;99.90;;;;;;5057498;28;20052;-78
2021/12/08 11:16:38;;;;;;;2.78;2.10;;;6.60;99.90;;;;;;5031915;28;20056;-76
2021/12/08 11:19:13;;;;;;;2.35;2.15;;;6.60;99.90;;;;;;5056541;28;20068;-78
2021/12/08 11:21:47;;;;;;;6.10;2.67;;;6.60;99.90;;;;;;5047427;28;20045;-78
2021/12/08 11:24:30;;;;;;;6.47;3.17;;;6.60;99.90;;;;;;5037527;28;20057;-78
2021/12/08 11:26:57;;;;;;;2.78;2.53;;;6.60;99.90;;;;;;5049765;28;20037;-77
2021/12/08 11:29:26;;;;;;;3.70;3.30;;;6.60;99.90;;;;;;5077250;28;20140;-77
2021/12/08 11:32:04;;;;;;;4.70;2.28;;;6.50;99.90;;;;;;5043552;28;20102;-77
2021/12/08 11:34:32;;;;;;;2.83;2.00;;;6.50;99.90;;;;;;5032051;28;20207;-77
2021/12/08 11:37:01;;;;;;;5.00;3.17;;;6.50;99.90;;;;;;5034124;28;20127;-77
2021/12/08 11:39:34;;;;;;;4.90;2.70;;;6.40;99.90;;;;;;5044531;28;20083;-77
2021/12/08 11:42:18;;;;;;;3.05;2.20;;;6.40;99.90;;;;;;5054947;28;20098;-77
2021/12/08 11:44:50;;;;;;;3.33;2.35;;;6.40;99.90;;;;;;5026888;28;20045;-77
2021/12/08 11:47:23;;;;;;;4.57;2.45;;;6.40;99.90;;;;;;5025867;28;20440;-77
2021/12/08 11:49:56;;;;;;;6.00;2.42;;;6.30;99.90;;;;;;5024306;28;20042;-77
2021/12/08 11:52:23;;;;;;;;;;;6.30;99.90;;;;;;5023644;28;20048;-77
2021/12/08 11:54:54;;;;;;;5.43;2.55;;;6.30;99.90;;;;;;5029201;28;20304;-77
2021/12/08 11:57:27;;;;;;;9.07;2.72;;;6.30;99.90;;;;;;5032693;28;20047;-77
2021/12/08 12:00:16;;;;;;;6.95;2.15;;;6.30;99.90;;;;;;5016653;28;20045;-77
2021/12/08 12:02:45;;;;;;;4.43;2.10;;;6.20;99.90;;;;;;5031189;28;20044;-77
2021/12/08 12:05:17;;;;;;;9.80;2.92;;;6.20;99.90;;;;;;5039604;28;20421;-77
2021/12/08 12:07:44;;;;;;;4.72;3.38;;;6.20;99.90;;;;;;5052270;28;20155;-77
2021/12/08 12:10:16;;;;;;;6.28;1.70;;;6.20;99.90;;;;;;5019435;28;20378;-77
2021/12/08 12:12:42;;;;;;;6.35;2.42;;;6.20;99.90;;;;;;5032074;28;20047;-77
2021/12/08 12:15:11;;;;;;;8.27;2.67;;;6.20;99.90;;;;;;5034297;28;20040;-77
2021/12/08 12:17:37;;;;;;;9.63;2.72;;;6.30;99.90;;;;;;5030587;28;20438;-77
2021/12/08 12:20:22;;;;;;;4.80;2.58;;;6.20;99.90;;;;;;5035161;28;20041;-77
2021/12/08 12:22:53;;;;;;;5.72;2.53;;;6.30;99.90;;;;;;5035395;28;20037;-77
2021/12/08 12:25:22;;;;;;;5.57;2.75;;;6.30;99.90;;;;;;5038171;28;20363;-77
2021/12/08 12:28:01;;;;;;;4.30;2.28;;;6.30;99.90;;;;;;5021004;28;20032;-77
2021/12/08 12:30:56;;;;;;;4.05;1.98;;;6.30;99.90;;;;;;5032231;28;20045;-76
2021/12/08 12:33:23;;;;;;;11.05;2.78;;;6.20;99.90;;;;;;5019746;28;20123;-77
2021/12/08 12:35:57;;;;;;;2.30;2.20;;;6.20;99.90;;;;;;5039504;28;20692;-76
2021/12/08 12:38:37;;;;;;;6.93;2.35;;;6.20;99.90;;;;;;5021583;28;20056;-77
2021/12/08 12:41:06;;;;;;;3.00;2.55;;;6.20;99.90;;;;;;5032999;28;20544;-76
2021/12/08 12:43:37;;;;;;;7.03;3.45;;;6.20;99.90;;;;;;5020078;28;20033;-77
2021/12/08 12:46:12;;;;;;;2.25;1.95;;;6.20;99.90;;;;;;5029123;28;20532;-77
2021/12/08 12:48:38;;;;;;;4.20;2.10;;;6.20;99.90;;;;;;5018700;28;20453;-77
2021/12/08 12:51:07;;;;;;;6.30;2.65;;;6.20;99.90;;;;;;5028051;28;20460;-77
2021/12/08 12:53:45;;;;;;;3.55;2.58;;;6.20;99.90;;;;;;5035616;28;20185;-77
2021/12/08 12:56:33;;;;;;;6.20;2.42;;;6.20;99.90;;;;;;5029432;28;20085;-76
2021/12/08 12:59:14;;;;;;;3.05;2.53;;;6.10;99.90;;;;;;5028859;28;20060;-77
2021/12/08 13:01:45;;;;;;;7.07;2.90;;;6.10;99.90;;;;;;5040402;28;20048;-77
2021/12/08 13:04:22;;;;;;;13.27;2.30;;;6.10;99.90;;;;;;5062924;28;20037;-77
2021/12/08 13:06:49;;;;;;;5.60;3.38;;;6.10;99.90;;;;;;5073051;28;20394;-76
2021/12/08 13:09:37;;;;;;;6.80;3.97;;;6.10;99.90;;;;;;5021771;28;20139;-77
2021/12/08 13:12:24;;;;;;;2.58;2.38;;;6.10;99.90;;;;;;5029907;28;20128;-77
2021/12/08 13:15:11;;;;;;;10.85;3.15;;;6.10;99.90;;;;;;5056201;28;20360;-77
2021/12/08 13:17:57;;;;;;;9.15;4.82;;;6.10;99.90;;;;;;5028606;28;20044;-76
2021/12/08 13:20:25;;;;;;;3.92;2.53;;;6.10;99.90;;;;;;5014499;28;20145;-77
2021/12/08 13:23:01;;;;;;;1999.90;999.90;;;6.10;99.90;;;;;;5042497;28;20528;-76
2021/12/08 13:25:39;;;;;;;1999.90;999.90;;;6.10;99.90;;;;;;5026148;28;20045;-76
2021/12/08 13:28:11;;;;;;;10.18;9.00;;;6.10;99.90;;;;;;5067203;28;20807;-77
2021/12/08 13:30:54;;;;;;;9.10;8.40;;;6.10;99.90;;;;;;5018856;28;20103;-77
2021/12/08 13:33:29;;;;;;;9.10;8.23;;;6.00;99.90;;;;;;5026711;28;20040;-77
2021/12/08 13:35:56;;;;;;;8.80;8.10;;;6.10;99.90;;;;;;5029412;28;20083;-77
2021/12/08 13:38:24;;;;;;;8.93;8.20;;;6.10;99.90;;;;;;5063386;28;20041;-76
2021/12/08 13:40:53;;;;;;;11.32;8.63;;;6.10;99.90;;;;;;5055716;28;20069;-77
2021/12/08 13:43:52;;;;;;;10.15;9.05;;;6.20;99.90;;;;;;5039404;28;20041;-77
2021/12/08 13:46:36;;;;;;;10.70;9.48;;;6.20;99.90;;;;;;5007351;28;20084;-76
2021/12/08 13:49:27;;;;;;;9.68;8.77;;;6.20;99.90;;;;;;5034660;28;20040;-77
2021/12/08 13:52:07;;;;;;;9.05;8.38;;;6.20;99.90;;;;;;5072125;28;20052;-77
2021/12/08 13:54:45;;;;;;;9.93;9.18;;;6.10;99.90;;;;;;5030747;28;20401;-77
2021/12/08 13:57:37;;;;;;;9.20;8.48;;;6.10;99.90;;;;;;5035755;28;20052;-77
2021/12/08 14:00:06;;;;;;;10.82;9.88;;;6.20;99.90;;;;;;5049254;28;20040;-77
2021/12/08 14:02:41;;;;;;;9.93;8.85;;;6.20;99.90;;;;;;5039420;28;20458;-76
2021/12/08 14:05:10;;;;;;;14.10;8.65;;;6.10;99.90;;;;;;5033564;28;20037;-77
2021/12/08 14:07:41;;;;;;;9.05;8.27;;;6.00;99.90;;;;;;5032908;28;20041;-76
2021/12/08 14:10:09;;;;;;;19.88;8.98;;;5.90;99.90;;;;;;5032693;28;20076;-77
2021/12/08 14:12:59;;;;;;;9.52;8.77;;;5.90;99.90;;;;;;5019116;28;20037;-76
2021/12/08 14:15:32;;;;;;;9.93;9.02;;;5.90;99.90;;;;;;5032953;28;20049;-77